createdAt,value
2022-10-28T00:00:52.269Z,74.73
2022-10-28T00:05:52.202Z,73.58
2022-10-28T00:10:52.071Z,73.38
2022-10-28T00:15:51.936Z,72.97
2022-10-28T00:20:54.961Z,74.86
2022-10-28T00:25:51.938Z,75.46
2022-10-28T00:30:51.880Z,75.40
2022-10-28T00:35:51.688Z,75.40
2022-10-28T00:40:59.111Z,74.86
2022-10-28T00:45:51.656Z,74.76
2022-10-28T00:50:51.651Z,76.04
2022-10-28T00:55:51.426Z,76.14
2022-10-28T01:00:51.376Z,76.04
2022-10-28T01:05:51.320Z,76.58
2022-10-28T01:10:51.282Z,76.84
2022-10-28T01:15:51.241Z,76.24
2022-10-28T01:20:54.216Z,76.04
2022-10-28T01:25:51.336Z,76.95
2022-10-28T01:30:51.103Z,76.54
2022-10-28T01:35:50.895Z,76.00
2022-10-28T01:40:50.966Z,75.84
2022-10-28T01:45:50.891Z,75.50
2022-10-28T01:50:50.733Z,76.14
2022-10-28T01:55:50.641Z,75.80
2022-10-28T02:00:50.677Z,75.30
2022-10-28T02:05:50.491Z,76.04
2022-10-28T02:10:50.563Z,75.50
2022-10-28T02:15:50.480Z,75.90
2022-10-28T02:20:53.510Z,76.00
2022-10-28T02:25:50.263Z,76.75
2022-10-28T02:30:50.818Z,75.50
2022-10-28T02:35:50.256Z,75.60
2022-10-28T02:40:50.144Z,77.04
2022-10-28T02:45:49.996Z,77.69
2022-10-28T02:50:49.995Z,76.54
2022-10-28T02:55:49.978Z,77.28
2022-10-28T03:00:49.863Z,77.49
2022-10-28T03:05:49.701Z,77.49
2022-10-28T03:10:49.741Z,77.39
2022-10-28T03:15:49.901Z,76.88
2022-10-28T03:20:55.461Z,77.19
2022-10-28T03:25:50.451Z,78.63
2022-10-28T03:30:49.541Z,77.93
2022-10-28T03:35:49.302Z,76.95
2022-10-28T03:40:49.311Z,77.39
2022-10-28T03:45:49.218Z,76.75
2022-10-28T03:50:49.277Z,76.64
2022-10-28T03:55:49.151Z,76.54
2022-10-28T04:00:49.114Z,77.59
2022-10-28T04:05:49.007Z,76.98
2022-10-28T04:10:48.929Z,77.28
2022-10-28T04:15:48.901Z,77.59
2022-10-28T04:20:51.802Z,78.03
2022-10-28T04:25:48.823Z,79.17
2022-10-28T04:30:48.788Z,78.33
2022-10-28T04:35:48.572Z,79.52
2022-10-28T04:40:48.644Z,78.97
2022-10-28T04:45:56.096Z,77.62
2022-10-28T04:50:48.456Z,78.57
2022-10-28T04:55:48.354Z,78.67
2022-10-28T05:00:48.231Z,77.53
2022-10-28T05:05:48.271Z,77.08
2022-10-28T05:10:48.121Z,77.83
2022-10-28T05:15:48.042Z,78.03
2022-10-28T05:20:51.081Z,77.73
2022-10-28T05:25:48.001Z,79.38
2022-10-28T05:30:47.857Z,77.73
2022-10-28T05:35:47.786Z,77.39
2022-10-28T05:40:47.722Z,78.06
2022-10-28T05:45:47.709Z,78.27
2022-10-28T05:50:47.676Z,78.17
2022-10-28T05:55:47.971Z,78.81
2022-10-28T06:00:47.627Z,79.21
2022-10-28T06:05:47.366Z,78.88
2022-10-28T06:10:49.419Z,79.08
2022-10-28T06:15:45.681Z,77.83
2022-10-28T06:20:48.859Z,77.22
2022-10-28T06:25:45.682Z,79.68
2022-10-28T06:30:45.607Z,76.98
2022-10-28T06:37:04.344Z,75.84
2022-10-28T06:42:04.219Z,76.24
2022-10-28T06:47:05.813Z,75.36
2022-10-28T06:52:05.609Z,73.48
2022-10-28T06:57:05.803Z,73.38
2022-10-28T07:02:05.650Z,71.36
2022-10-28T07:07:05.531Z,71.16
2022-10-28T07:12:13.486Z,69.99
2022-10-28T07:17:05.328Z,70.39
2022-10-28T07:22:05.368Z,70.86
2022-10-28T07:27:08.316Z,70.86
2022-10-28T07:32:06.229Z,72.10
2022-10-28T07:37:05.156Z,70.73
2022-10-28T07:42:05.116Z,69.99
2022-10-28T07:47:05.033Z,70.23
2022-10-28T07:52:04.899Z,70.96
2022-10-28T07:57:05.140Z,70.23
2022-10-28T08:02:04.831Z,69.79
2022-10-28T08:07:04.766Z,69.49
2022-10-28T08:12:04.606Z,69.52
2022-10-28T08:17:04.568Z,69.09
2022-10-28T08:22:04.462Z,67.82
2022-10-28T08:27:07.465Z,66.99
2022-10-28T08:32:04.437Z,67.08
2022-10-28T08:37:04.361Z,66.58
2022-10-28T08:42:04.215Z,66.99
2022-10-28T08:47:04.149Z,66.45
2022-10-28T08:52:04.101Z,66.95
2022-10-28T08:57:04.085Z,66.28
2022-10-28T09:02:03.963Z,66.22
2022-10-28T09:07:11.427Z,65.59
2022-10-28T09:12:11.302Z,65.28
2022-10-28T09:17:03.782Z,67.15
2022-10-28T09:22:03.640Z,65.82
2022-10-28T09:27:06.681Z,64.89
2022-10-28T09:32:03.731Z,65.72
2022-10-28T09:37:03.526Z,64.59
2022-10-28T09:42:03.437Z,63.69
2022-10-28T09:47:03.464Z,63.19
2022-10-28T09:52:03.343Z,62.63
2022-10-28T09:57:03.207Z,63.66
2022-10-28T10:02:03.352Z,63.00
2022-10-28T10:07:03.204Z,62.83
2022-10-28T10:12:02.979Z,63.07
2022-10-28T10:17:03.151Z,61.51
2022-10-28T10:22:02.825Z,60.95
2022-10-28T10:27:05.848Z,58.10
2022-10-28T10:32:02.769Z,58.40
2022-10-28T10:42:02.576Z,55.13
2022-10-28T10:47:06.038Z,55.30
2022-10-28T10:52:02.435Z,54.36
2022-10-28T10:57:02.436Z,54.43
2022-10-28T11:02:02.571Z,54.28
2022-10-28T11:07:02.387Z,53.66
2022-10-28T11:12:04.221Z,52.17
2022-10-28T11:17:02.301Z,51.47
2022-10-28T11:22:02.061Z,51.47
2022-10-28T11:27:05.134Z,52.07
2022-10-28T11:32:01.885Z,52.19
2022-10-28T11:37:01.875Z,51.05
2022-10-28T11:42:01.791Z,52.64
2022-10-28T11:47:04.215Z,52.73
2022-10-28T11:52:09.060Z,52.98
2022-10-28T11:57:01.597Z,53.73
2022-10-28T12:02:01.812Z,55.15
2022-10-28T12:07:01.469Z,52.47
2022-10-28T12:12:01.473Z,52.14
2022-10-28T12:17:01.375Z,52.04
2022-10-28T12:22:01.285Z,53.36
2022-10-28T12:27:04.464Z,52.98
2022-10-28T12:32:01.166Z,53.11
2022-10-28T12:37:01.184Z,51.18
2022-10-28T12:42:00.977Z,50.90
2022-10-28T12:47:01.013Z,51.54
2022-10-28T12:52:01.038Z,50.85
2022-10-28T12:57:00.843Z,50.26
2022-10-28T13:02:00.838Z,50.23
2022-10-28T13:07:00.758Z,51.15
2022-10-28T13:12:00.555Z,51.12
2022-10-28T13:17:00.525Z,52.61
2022-10-28T13:22:01.019Z,53.44
2022-10-28T13:27:03.476Z,52.39
2022-10-28T13:33:10.969Z,52.89
2022-10-28T13:38:10.867Z,53.70
2022-10-28T13:43:12.067Z,52.79
2022-10-28T13:48:10.816Z,51.89
2022-10-28T13:53:10.655Z,52.09
2022-10-28T13:58:10.596Z,52.72
2022-10-28T14:03:11.149Z,53.66
2022-10-28T14:08:10.442Z,53.86
2022-10-28T14:13:10.520Z,54.85
2022-10-28T14:18:29.625Z,55.05
2022-10-28T14:23:14.345Z,55.67
2022-10-28T14:28:10.407Z,56.92
2022-10-28T14:33:10.168Z,57.59
2022-10-28T14:38:10.028Z,56.99
2022-10-28T14:43:17.835Z,56.30
2022-10-28T14:48:09.943Z,56.32
2022-10-28T14:53:09.964Z,57.15
2022-10-28T14:58:09.990Z,57.28
2022-10-28T15:03:09.831Z,57.17
2022-10-28T15:08:09.643Z,57.67
2022-10-28T15:13:09.637Z,58.03
2022-10-28T15:18:09.567Z,58.33
2022-10-28T15:23:12.525Z,58.42
2022-10-28T15:28:10.300Z,60.50
2022-10-28T15:33:10.531Z,59.18
2022-10-28T15:38:09.278Z,60.00
2022-10-28T15:43:09.349Z,60.24
2022-10-28T15:48:09.308Z,60.24
2022-10-28T15:53:09.208Z,60.57
2022-10-28T15:58:08.966Z,59.44
2022-10-28T16:03:09.017Z,59.23
2022-10-28T16:08:08.826Z,59.77
2022-10-28T16:13:11.504Z,60.49
2022-10-28T16:18:08.733Z,60.62
2022-10-28T16:23:11.817Z,61.42
2022-10-28T16:28:08.673Z,62.38
2022-10-28T16:33:08.754Z,61.35
2022-10-28T16:38:08.794Z,61.45
2022-10-28T16:43:08.561Z,61.98
2022-10-28T16:48:08.450Z,63.42
2022-10-28T16:53:08.334Z,64.45
2022-10-28T16:58:08.306Z,64.88
2022-10-28T17:03:08.826Z,66.64
2022-10-28T17:08:09.992Z,67.05
2022-10-28T17:13:08.076Z,66.64
2022-10-28T17:18:16.859Z,66.21
2022-10-28T17:23:12.546Z,66.95
2022-10-28T17:28:07.907Z,67.78
2022-10-28T17:33:07.717Z,66.21
2022-10-28T17:38:08.180Z,66.31
2022-10-28T17:43:07.636Z,65.88
2022-10-28T17:48:07.598Z,65.78
2022-10-28T17:53:07.455Z,65.98
2022-10-28T17:58:07.492Z,67.25
2022-10-28T18:03:07.314Z,67.48
2022-10-28T18:08:08.384Z,67.25
2022-10-28T18:13:14.752Z,67.55
2022-10-28T18:18:07.253Z,69.32
2022-10-28T18:23:10.219Z,69.62
2022-10-28T18:28:07.001Z,70.50
2022-10-28T18:33:06.959Z,70.79
2022-10-28T18:38:07.002Z,70.59
2022-10-28T18:43:06.848Z,71.23
2022-10-28T18:48:06.769Z,71.63
2022-10-28T18:53:06.918Z,72.14
2022-10-28T18:58:06.599Z,72.14
2022-10-28T19:03:06.717Z,71.94
2022-10-28T19:08:06.476Z,71.20
2022-10-28T19:13:07.595Z,71.09
2022-10-28T19:18:06.377Z,71.09
2022-10-28T19:23:09.592Z,70.59
2022-10-28T19:28:06.226Z,71.94
2022-10-28T19:33:06.225Z,71.63
2022-10-28T19:38:06.166Z,72.67
2022-10-28T19:43:06.298Z,74.15
2022-10-28T19:48:06.328Z,72.77
2022-10-28T19:53:13.621Z,71.63
2022-10-28T19:58:05.804Z,71.83
2022-10-28T20:03:05.884Z,71.03
2022-10-28T20:08:05.824Z,71.53
2022-10-28T20:13:05.874Z,71.73
2022-10-28T20:18:05.762Z,71.67
2022-10-28T20:23:08.663Z,71.03
2022-10-28T20:28:05.540Z,71.67
2022-10-28T20:33:05.461Z,71.63
2022-10-28T20:38:05.377Z,72.47
2022-10-28T20:43:05.349Z,74.76
2022-10-28T20:48:05.298Z,74.39
2022-10-28T20:53:05.297Z,74.26
2022-10-28T20:58:05.148Z,76.07
2022-10-28T21:03:05.077Z,76.58
2022-10-28T21:08:04.916Z,75.34
2022-10-28T21:13:04.918Z,76.78
2022-10-28T21:18:04.992Z,76.62
2022-10-28T21:23:07.731Z,75.10
2022-10-28T21:28:04.773Z,76.38
2022-10-28T21:33:05.632Z,78.17
2022-10-28T21:38:04.675Z,79.21
2022-10-28T21:43:04.619Z,79.46
2022-10-28T21:48:04.487Z,77.66
2022-10-28T21:53:04.519Z,78.61
2022-10-28T21:58:04.326Z,77.90
2022-10-28T22:03:04.352Z,76.86
2022-10-28T22:08:05.108Z,78.10
2022-10-28T22:13:04.105Z,78.20
2022-10-28T22:18:03.992Z,80.10
2022-10-28T22:23:14.776Z,78.75
2022-10-28T22:28:11.340Z,77.90
2022-10-28T22:33:12.223Z,77.09
2022-10-28T22:38:03.805Z,78.99
2022-10-28T22:43:03.831Z,78.14
2022-10-28T22:48:03.749Z,78.14
2022-10-28T22:53:03.653Z,79.39
2022-10-28T22:58:03.602Z,79.08
2022-10-28T23:03:03.615Z,78.10
2022-10-28T23:08:03.390Z,77.06
2022-10-28T23:13:03.408Z,77.06
2022-10-28T23:18:03.309Z,77.19
2022-10-28T23:23:06.245Z,78.00
2022-10-28T23:28:03.095Z,78.55
2022-10-28T23:33:03.157Z,78.04
2022-10-28T23:38:03.094Z,79.05
2022-10-28T23:43:03.043Z,79.05
2022-10-28T23:48:02.864Z,78.95
2022-10-28T23:53:02.829Z,79.39
2022-10-28T23:58:02.893Z,78.81
